sensor_id;sensor_type;location;lat;lon;timestamp;P1;durP1;ratioP1;P2;durP2;ratioP2
47882;SDS011;37739;50.350;7.578;2022-12-13T00:00:54;25.67;;;16.23;;
47882;SDS011;37739;50.350;7.578;2022-12-13T00:03:22;28.13;;;18.37;;
47882;SDS011;37739;50.350;7.578;2022-12-13T00:05:47;25.70;;;17.07;;
47882;SDS011;37739;50.350;7.578;2022-12-13T00:08:15;23.70;;;15.73;;
47882;SDS011;37739;50.350;7.578;2022-12-13T00:10:43;23.23;;;14.33;;
47882;SDS011;37739;50.350;7.578;2022-12-13T00:13:08;22.40;;;16.57;;
47882;SDS011;37739;50.350;7.578;2022-12-13T00:15:36;24.63;;;15.50;;
47882;SDS011;37739;50.350;7.578;2022-12-13T00:18:02;24.00;;;16.50;;
47882;SDS011;37739;50.350;7.578;2022-12-13T00:20:30;21.13;;;16.23;;
47882;SDS011;37739;50.350;7.578;2022-12-13T00:22:55;23.13;;;15.67;;
47882;SDS011;37739;50.350;7.578;2022-12-13T00:25:23;22.00;;;16.33;;
47882;SDS011;37739;50.350;7.578;2022-12-13T00:27:48;19.80;;;14.90;;
47882;SDS011;37739;50.350;7.578;2022-12-13T00:30:14;22.80;;;15.87;;
47882;SDS011;37739;50.350;7.578;2022-12-13T00:32:39;26.90;;;17.60;;
47882;SDS011;37739;50.350;7.578;2022-12-13T00:35:09;25.20;;;15.80;;
47882;SDS011;37739;50.350;7.578;2022-12-13T00:37:39;21.97;;;15.13;;
47882;SDS011;37739;50.350;7.578;2022-12-13T00:40:07;22.57;;;16.30;;
47882;SDS011;37739;50.350;7.578;2022-12-13T00:42:33;19.90;;;15.30;;
47882;SDS011;37739;50.350;7.578;2022-12-13T00:44:58;21.43;;;15.17;;
47882;SDS011;37739;50.350;7.578;2022-12-13T00:47:24;22.83;;;14.70;;
47882;SDS011;37739;50.350;7.578;2022-12-13T00:49:51;23.87;;;15.53;;
47882;SDS011;37739;50.350;7.578;2022-12-13T00:52:17;22.67;;;15.53;;
47882;SDS011;37739;50.350;7.578;2022-12-13T00:54:42;20.90;;;15.50;;
47882;SDS011;37739;50.350;7.578;2022-12-13T00:57:09;24.30;;;16.40;;
47882;SDS011;37739;50.350;7.578;2022-12-13T00:59:37;22.40;;;15.37;;
47882;SDS011;37739;50.350;7.578;2022-12-13T01:02:03;23.17;;;15.33;;
47882;SDS011;37739;50.350;7.578;2022-12-13T01:04:30;21.90;;;14.17;;
47882;SDS011;37739;50.350;7.578;2022-12-13T01:06:55;21.20;;;15.77;;
47882;SDS011;37739;50.350;7.578;2022-12-13T01:09:22;23.90;;;14.10;;
47882;SDS011;37739;50.350;7.578;2022-12-13T01:11:56;25.47;;;17.30;;
47882;SDS011;37739;50.350;7.578;2022-12-13T01:14:25;18.10;;;13.07;;
47882;SDS011;37739;50.350;7.578;2022-12-13T01:16:51;22.97;;;15.90;;
47882;SDS011;37739;50.350;7.578;2022-12-13T01:19:25;27.33;;;18.80;;
47882;SDS011;37739;50.350;7.578;2022-12-13T01:21:55;21.37;;;15.80;;
47882;SDS011;37739;50.350;7.578;2022-12-13T01:24:21;22.10;;;15.37;;
47882;SDS011;37739;50.350;7.578;2022-12-13T01:26:52;24.00;;;17.10;;
47882;SDS011;37739;50.350;7.578;2022-12-13T01:29:18;24.87;;;15.70;;
47882;SDS011;37739;50.350;7.578;2022-12-13T01:31:47;19.33;;;13.40;;
47882;SDS011;37739;50.350;7.578;2022-12-13T01:34:16;22.13;;;15.37;;
47882;SDS011;37739;50.350;7.578;2022-12-13T01:36:46;24.97;;;15.73;;
47882;SDS011;37739;50.350;7.578;2022-12-13T01:39:16;19.13;;;14.43;;
47882;SDS011;37739;50.350;7.578;2022-12-13T01:41:47;21.90;;;14.90;;
47882;SDS011;37739;50.350;7.578;2022-12-13T01:47:25;20.07;;;15.50;;
47882;SDS011;37739;50.350;7.578;2022-12-13T01:49:55;16.07;;;12.20;;
47882;SDS011;37739;50.350;7.578;2022-12-13T01:52:23;19.80;;;14.20;;
47882;SDS011;37739;50.350;7.578;2022-12-13T01:54:50;20.77;;;14.50;;
47882;SDS011;37739;50.350;7.578;2022-12-13T01:57:21;20.13;;;15.07;;
47882;SDS011;37739;50.350;7.578;2022-12-13T01:59:47;18.40;;;13.27;;
47882;SDS011;37739;50.350;7.578;2022-12-13T02:02:18;23.97;;;17.03;;
47882;SDS011;37739;50.350;7.578;2022-12-13T02:04:54;25.37;;;17.13;;
47882;SDS011;37739;50.350;7.578;2022-12-13T02:07:28;20.10;;;13.70;;
47882;SDS011;37739;50.350;7.578;2022-12-13T02:09:59;21.13;;;15.43;;
47882;SDS011;37739;50.350;7.578;2022-12-13T02:12:27;22.63;;;15.07;;
47882;SDS011;37739;50.350;7.578;2022-12-13T02:14:58;23.07;;;15.77;;
47882;SDS011;37739;50.350;7.578;2022-12-13T02:25:51;20.07;;;14.33;;
47882;SDS011;37739;50.350;7.578;2022-12-13T02:31:12;17.50;;;12.17;;
47882;SDS011;37739;50.350;7.578;2022-12-13T02:33:49;20.67;;;13.87;;
47882;SDS011;37739;50.350;7.578;2022-12-13T02:36:26;21.97;;;14.80;;
47882;SDS011;37739;50.350;7.578;2022-12-13T02:38:58;20.90;;;14.13;;
47882;SDS011;37739;50.350;7.578;2022-12-13T02:41:45;19.30;;;14.07;;
47882;SDS011;37739;50.350;7.578;2022-12-13T02:44:16;22.27;;;13.47;;
47882;SDS011;37739;50.350;7.578;2022-12-13T02:46:44;20.70;;;12.73;;
47882;SDS011;37739;50.350;7.578;2022-12-13T02:49:16;24.97;;;15.80;;
47882;SDS011;37739;50.350;7.578;2022-12-13T02:51:47;21.33;;;14.10;;
47882;SDS011;37739;50.350;7.578;2022-12-13T02:54:18;22.73;;;14.37;;
47882;SDS011;37739;50.350;7.578;2022-12-13T02:56:56;20.00;;;14.47;;
47882;SDS011;37739;50.350;7.578;2022-12-13T02:59:32;18.70;;;12.97;;
47882;SDS011;37739;50.350;7.578;2022-12-13T03:02:16;19.67;;;14.73;;
47882;SDS011;37739;50.350;7.578;2022-12-13T03:07:54;19.97;;;13.10;;
47882;SDS011;37739;50.350;7.578;2022-12-13T03:10:29;19.90;;;14.00;;
47882;SDS011;37739;50.350;7.578;2022-12-13T03:13:02;22.03;;;14.00;;
47882;SDS011;37739;50.350;7.578;2022-12-13T03:15:59;20.77;;;14.20;;
47882;SDS011;37739;50.350;7.578;2022-12-13T03:18:44;17.03;;;12.17;;
47882;SDS011;37739;50.350;7.578;2022-12-13T03:21:11;20.03;;;12.80;;
47882;SDS011;37739;50.350;7.578;2022-12-13T03:23:42;20.10;;;14.30;;
47882;SDS011;37739;50.350;7.578;2022-12-13T03:26:12;17.37;;;14.23;;
47882;SDS011;37739;50.350;7.578;2022-12-13T03:28:41;21.97;;;15.73;;
47882;SDS011;37739;50.350;7.578;2022-12-13T03:31:07;24.90;;;15.83;;
47882;SDS011;37739;50.350;7.578;2022-12-13T03:33:32;21.07;;;14.57;;
47882;SDS011;37739;50.350;7.578;2022-12-13T03:36:00;23.23;;;14.10;;
47882;SDS011;37739;50.350;7.578;2022-12-13T03:38:26;18.93;;;14.17;;
47882;SDS011;37739;50.350;7.578;2022-12-13T03:40:53;13.20;;;9.77;;
47882;SDS011;37739;50.350;7.578;2022-12-13T03:43:24;23.23;;;15.10;;
47882;SDS011;37739;50.350;7.578;2022-12-13T03:45:52;23.20;;;14.67;;
47882;SDS011;37739;50.350;7.578;2022-12-13T03:48:20;21.27;;;13.77;;
47882;SDS011;37739;50.350;7.578;2022-12-13T03:50:49;23.53;;;15.87;;
47882;SDS011;37739;50.350;7.578;2022-12-13T03:53:15;18.20;;;12.60;;
47882;SDS011;37739;50.350;7.578;2022-12-13T03:55:41;22.53;;;13.77;;
47882;SDS011;37739;50.350;7.578;2022-12-13T03:58:09;18.80;;;13.30;;
47882;SDS011;37739;50.350;7.578;2022-12-13T04:00:34;16.57;;;11.70;;
47882;SDS011;37739;50.350;7.578;2022-12-13T04:03:00;22.80;;;13.43;;
47882;SDS011;37739;50.350;7.578;2022-12-13T04:05:25;15.40;;;12.10;;
47882;SDS011;37739;50.350;7.578;2022-12-13T04:07:57;19.27;;;13.63;;
47882;SDS011;37739;50.350;7.578;2022-12-13T04:10:23;18.50;;;12.20;;
47882;SDS011;37739;50.350;7.578;2022-12-13T04:12:52;20.27;;;14.20;;
47882;SDS011;37739;50.350;7.578;2022-12-13T04:15:39;19.80;;;14.03;;
47882;SDS011;37739;50.350;7.578;2022-12-13T04:18:13;18.60;;;12.10;;
47882;SDS011;37739;50.350;7.578;2022-12-13T04:20:40;19.83;;;13.37;;
47882;SDS011;37739;50.350;7.578;2022-12-13T04:23:06;20.20;;;12.97;;
47882;SDS011;37739;50.350;7.578;2022-12-13T04:25:33;17.33;;;12.17;;
47882;SDS011;37739;50.350;7.578;2022-12-13T04:27:59;27.27;;;15.50;;
47882;SDS011;37739;50.350;7.578;2022-12-13T04:30:26;21.00;;;13.50;;
47882;SDS011;37739;50.350;7.578;2022-12-13T04:32:52;15.50;;;11.87;;
47882;SDS011;37739;50.350;7.578;2022-12-13T04:35:17;17.13;;;11.97;;
47882;SDS011;37739;50.350;7.578;2022-12-13T04:37:43;19.90;;;14.00;;
47882;SDS011;37739;50.350;7.578;2022-12-13T04:40:11;22.70;;;15.73;;
47882;SDS011;37739;50.350;7.578;2022-12-13T04:42:39;22.67;;;15.07;;
47882;SDS011;37739;50.350;7.578;2022-12-13T04:45:04;22.70;;;15.80;;
47882;SDS011;37739;50.350;7.578;2022-12-13T04:47:32;19.40;;;13.40;;
47882;SDS011;37739;50.350;7.578;2022-12-13T04:49:57;22.37;;;13.73;;
47882;SDS011;37739;50.350;7.578;2022-12-13T04:52:25;24.23;;;16.00;;
47882;SDS011;37739;50.350;7.578;2022-12-13T04:54:53;19.93;;;14.03;;
47882;SDS011;37739;50.350;7.578;2022-12-13T04:57:18;23.17;;;15.77;;
47882;SDS011;37739;50.350;7.578;2022-12-13T04:59:43;21.37;;;12.93;;
47882;SDS011;37739;50.350;7.578;2022-12-13T05:02:11;24.53;;;14.67;;
47882;SDS011;37739;50.350;7.578;2022-12-13T05:04:37;22.43;;;15.97;;
47882;SDS011;37739;50.350;7.578;2022-12-13T05:07:07;24.97;;;15.00;;
47882;SDS011;37739;50.350;7.578;2022-12-13T05:09:34;22.10;;;15.60;;
47882;SDS011;37739;50.350;7.578;2022-12-13T05:12:00;23.97;;;15.83;;
47882;SDS011;37739;50.350;7.578;2022-12-13T05:14:28;19.43;;;12.60;;
47882;SDS011;37739;50.350;7.578;2022-12-13T05:16:59;19.53;;;13.53;;
47882;SDS011;37739;50.350;7.578;2022-12-13T05:19:25;23.37;;;15.80;;
47882;SDS011;37739;50.350;7.578;2022-12-13T05:21:53;21.60;;;14.93;;
47882;SDS011;37739;50.350;7.578;2022-12-13T05:24:19;20.70;;;15.70;;
47882;SDS011;37739;50.350;7.578;2022-12-13T05:26:44;16.70;;;12.23;;
47882;SDS011;37739;50.350;7.578;2022-12-13T05:29:09;19.20;;;14.00;;
47882;SDS011;37739;50.350;7.578;2022-12-13T05:31:37;22.30;;;16.27;;
47882;SDS011;37739;50.350;7.578;2022-12-13T05:34:03;19.20;;;13.30;;
47882;SDS011;37739;50.350;7.578;2022-12-13T05:36:31;22.63;;;15.90;;
47882;SDS011;37739;50.350;7.578;2022-12-13T05:38:56;25.30;;;17.17;;
47882;SDS011;37739;50.350;7.578;2022-12-13T05:41:22;21.10;;;14.47;;
47882;SDS011;37739;50.350;7.578;2022-12-13T05:43:50;17.87;;;11.70;;
47882;SDS011;37739;50.350;7.578;2022-12-13T05:46:19;21.63;;;14.67;;
47882;SDS011;37739;50.350;7.578;2022-12-13T05:48:46;18.50;;;12.10;;
47882;SDS011;37739;50.350;7.578;2022-12-13T05:51:11;19.63;;;14.43;;
47882;SDS011;37739;50.350;7.578;2022-12-13T05:53:40;21.23;;;15.07;;
47882;SDS011;37739;50.350;7.578;2022-12-13T05:56:09;16.80;;;12.03;;
47882;SDS011;37739;50.350;7.578;2022-12-13T05:58:39;19.87;;;14.03;;
47882;SDS011;37739;50.350;7.578;2022-12-13T06:01:13;15.97;;;11.27;;
47882;SDS011;37739;50.350;7.578;2022-12-13T06:03:39;19.63;;;13.27;;
47882;SDS011;37739;50.350;7.578;2022-12-13T06:06:08;18.50;;;12.63;;
47882;SDS011;37739;50.350;7.578;2022-12-13T06:08:37;18.00;;;12.17;;
47882;SDS011;37739;50.350;7.578;2022-12-13T06:11:05;13.93;;;11.33;;
47882;SDS011;37739;50.350;7.578;2022-12-13T06:13:31;18.73;;;12.30;;
47882;SDS011;37739;50.350;7.578;2022-12-13T06:16:05;18.37;;;12.43;;
47882;SDS011;37739;50.350;7.578;2022-12-13T06:18:34;17.20;;;11.20;;
47882;SDS011;37739;50.350;7.578;2022-12-13T06:21:03;19.87;;;14.47;;
47882;SDS011;37739;50.350;7.578;2022-12-13T06:23:31;20.87;;;13.90;;
47882;SDS011;37739;50.350;7.578;2022-12-13T06:25:58;16.43;;;12.10;;
47882;SDS011;37739;50.350;7.578;2022-12-13T06:28:26;21.13;;;14.77;;
47882;SDS011;37739;50.350;7.578;2022-12-13T06:30:52;20.90;;;14.47;;
47882;SDS011;37739;50.350;7.578;2022-12-13T06:33:18;16.90;;;11.43;;
47882;SDS011;37739;50.350;7.578;2022-12-13T06:35:44;23.38;;;18.55;;
47882;SDS011;37739;50.350;7.578;2022-12-13T06:38:09;18.87;;;13.90;;
47882;SDS011;37739;50.350;7.578;2022-12-13T06:40:38;21.30;;;14.70;;
47882;SDS011;37739;50.350;7.578;2022-12-13T06:43:04;19.70;;;14.63;;
47882;SDS011;37739;50.350;7.578;2022-12-13T06:45:29;21.67;;;12.73;;
47882;SDS011;37739;50.350;7.578;2022-12-13T06:47:55;23.10;;;14.77;;
47882;SDS011;37739;50.350;7.578;2022-12-13T06:50:23;21.30;;;14.43;;
47882;SDS011;37739;50.350;7.578;2022-12-13T06:52:48;20.63;;;13.93;;
47882;SDS011;37739;50.350;7.578;2022-12-13T06:55:13;23.90;;;14.10;;
47882;SDS011;37739;50.350;7.578;2022-12-13T06:57:39;18.53;;;12.77;;
47882;SDS011;37739;50.350;7.578;2022-12-13T07:00:08;20.20;;;14.43;;
47882;SDS011;37739;50.350;7.578;2022-12-13T07:02:36;20.87;;;13.97;;
47882;SDS011;37739;50.350;7.578;2022-12-13T07:05:02;22.03;;;13.33;;
47882;SDS011;37739;50.350;7.578;2022-12-13T07:07:27;19.70;;;13.73;;
47882;SDS011;37739;50.350;7.578;2022-12-13T07:09:53;23.57;;;13.90;;
47882;SDS011;37739;50.350;7.578;2022-12-13T07:12:21;21.73;;;13.20;;
47882;SDS011;37739;50.350;7.578;2022-12-13T07:14:52;21.57;;;12.30;;
47882;SDS011;37739;50.350;7.578;2022-12-13T07:17:17;19.17;;;12.97;;
47882;SDS011;37739;50.350;7.578;2022-12-13T07:19:45;18.00;;;12.63;;
47882;SDS011;37739;50.350;7.578;2022-12-13T07:22:10;18.80;;;13.97;;
47882;SDS011;37739;50.350;7.578;2022-12-13T07:24:36;17.33;;;12.50;;
47882;SDS011;37739;50.350;7.578;2022-12-13T07:27:01;17.60;;;12.40;;
47882;SDS011;37739;50.350;7.578;2022-12-13T07:29:30;18.00;;;11.87;;
47882;SDS011;37739;50.350;7.578;2022-12-13T07:31:55;18.37;;;11.93;;
47882;SDS011;37739;50.350;7.578;2022-12-13T07:34:20;19.80;;;13.67;;
47882;SDS011;37739;50.350;7.578;2022-12-13T07:36:50;16.77;;;11.97;;
47882;SDS011;37739;50.350;7.578;2022-12-13T07:39:18;17.77;;;11.90;;
47882;SDS011;37739;50.350;7.578;2022-12-13T07:41:46;21.93;;;13.90;;
47882;SDS011;37739;50.350;7.578;2022-12-13T07:44:12;22.33;;;13.60;;
47882;SDS011;37739;50.350;7.578;2022-12-13T07:46:39;20.80;;;13.63;;
47882;SDS011;37739;50.350;7.578;2022-12-13T07:49:07;18.17;;;12.87;;
47882;SDS011;37739;50.350;7.578;2022-12-13T07:51:35;17.30;;;11.83;;
47882;SDS011;37739;50.350;7.578;2022-12-13T07:54:06;17.40;;;12.03;;
47882;SDS011;37739;50.350;7.578;2022-12-13T07:56:32;19.10;;;12.60;;
47882;SDS011;37739;50.350;7.578;2022-12-13T07:59:01;16.97;;;12.30;;
47882;SDS011;37739;50.350;7.578;2022-12-13T08:01:26;20.90;;;12.67;;
47882;SDS011;37739;50.350;7.578;2022-12-13T08:03:54;21.63;;;15.37;;
47882;SDS011;37739;50.350;7.578;2022-12-13T08:06:20;20.33;;;13.63;;
47882;SDS011;37739;50.350;7.578;2022-12-13T08:08:45;19.27;;;12.87;;
47882;SDS011;37739;50.350;7.578;2022-12-13T08:11:15;19.97;;;12.47;;
47882;SDS011;37739;50.350;7.578;2022-12-13T08:13:41;17.37;;;12.17;;
47882;SDS011;37739;50.350;7.578;2022-12-13T08:16:07;18.23;;;12.37;;
47882;SDS011;37739;50.350;7.578;2022-12-13T08:18:37;18.80;;;13.40;;
47882;SDS011;37739;50.350;7.578;2022-12-13T08:21:04;19.40;;;12.53;;
47882;SDS011;37739;50.350;7.578;2022-12-13T08:23:31;16.37;;;11.27;;
47882;SDS011;37739;50.350;7.578;2022-12-13T08:25:58;18.27;;;14.00;;
47882;SDS011;37739;50.350;7.578;2022-12-13T08:28:25;20.00;;;12.50;;
47882;SDS011;37739;50.350;7.578;2022-12-13T08:30:51;20.00;;;12.70;;
47882;SDS011;37739;50.350;7.578;2022-12-13T08:33:17;23.27;;;13.73;;
47882;SDS011;37739;50.350;7.578;2022-12-13T08:35:45;17.70;;;11.70;;
47882;SDS011;37739;50.350;7.578;2022-12-13T08:38:11;17.47;;;12.93;;
47882;SDS011;37739;50.350;7.578;2022-12-13T08:40:39;23.40;;;15.57;;
47882;SDS011;37739;50.350;7.578;2022-12-13T08:43:07;22.47;;;14.53;;
47882;SDS011;37739;50.350;7.578;2022-12-13T08:45:32;19.73;;;13.80;;
47882;SDS011;37739;50.350;7.578;2022-12-13T08:47:58;18.93;;;11.93;;
47882;SDS011;37739;50.350;7.578;2022-12-13T08:50:27;17.03;;;12.73;;
47882;SDS011;37739;50.350;7.578;2022-12-13T08:52:54;20.60;;;13.80;;
47882;SDS011;37739;50.350;7.578;2022-12-13T08:55:19;16.30;;;12.63;;
47882;SDS011;37739;50.350;7.578;2022-12-13T08:57:45;19.97;;;12.97;;
47882;SDS011;37739;50.350;7.578;2022-12-13T09:00:11;17.30;;;11.37;;
47882;SDS011;37739;50.350;7.578;2022-12-13T09:02:38;14.87;;;10.80;;
47882;SDS011;37739;50.350;7.578;2022-12-13T09:05:09;16.87;;;11.60;;
47882;SDS011;37739;50.350;7.578;2022-12-13T09:07:35;15.00;;;10.73;;
47882;SDS011;37739;50.350;7.578;2022-12-13T09:10:05;21.90;;;12.60;;
47882;SDS011;37739;50.350;7.578;2022-12-13T09:12:34;16.70;;;11.30;;
47882;SDS011;37739;50.350;7.578;2022-12-13T09:15:04;14.50;;;11.60;;
47882;SDS011;37739;50.350;7.578;2022-12-13T09:17:29;18.33;;;13.10;;
47882;SDS011;37739;50.350;7.578;2022-12-13T09:19:56;19.43;;;13.00;;
47882;SDS011;37739;50.350;7.578;2022-12-13T09:22:24;18.57;;;12.17;;
47882;SDS011;37739;50.350;7.578;2022-12-13T09:24:54;17.33;;;12.20;;
47882;SDS011;37739;50.350;7.578;2022-12-13T09:27:22;19.03;;;13.87;;
47882;SDS011;37739;50.350;7.578;2022-12-13T09:29:48;15.60;;;11.13;;
47882;SDS011;37739;50.350;7.578;2022-12-13T09:32:14;16.20;;;11.30;;
47882;SDS011;37739;50.350;7.578;2022-12-13T09:34:39;16.97;;;10.93;;
47882;SDS011;37739;50.350;7.578;2022-12-13T09:37:04;16.23;;;12.50;;
47882;SDS011;37739;50.350;7.578;2022-12-13T09:39:33;21.80;;;14.13;;
47882;SDS011;37739;50.350;7.578;2022-12-13T09:41:58;16.93;;;11.60;;
47882;SDS011;37739;50.350;7.578;2022-12-13T09:44:30;17.70;;;12.27;;
47882;SDS011;37739;50.350;7.578;2022-12-13T09:46:59;15.70;;;11.30;;
47882;SDS011;37739;50.350;7.578;2022-12-13T09:49:28;17.13;;;11.60;;
47882;SDS011;37739;50.350;7.578;2022-12-13T09:51:58;18.97;;;13.73;;
47882;SDS011;37739;50.350;7.578;2022-12-13T09:54:25;17.97;;;12.90;;
47882;SDS011;37739;50.350;7.578;2022-12-13T09:56:52;16.47;;;12.40;;
47882;SDS011;37739;50.350;7.578;2022-12-13T09:59:25;15.90;;;11.53;;
47882;SDS011;37739;50.350;7.578;2022-12-13T10:01:53;19.60;;;14.20;;
47882;SDS011;37739;50.350;7.578;2022-12-13T10:04:21;17.47;;;12.10;;
47882;SDS011;37739;50.350;7.578;2022-12-13T10:06:49;18.17;;;12.40;;
47882;SDS011;37739;50.350;7.578;2022-12-13T10:09:17;16.23;;;12.00;;
47882;SDS011;37739;50.350;7.578;2022-12-13T10:11:47;17.30;;;11.93;;
47882;SDS011;37739;50.350;7.578;2022-12-13T10:14:21;15.50;;;12.37;;
47882;SDS011;37739;50.350;7.578;2022-12-13T10:16:56;20.67;;;15.20;;
47882;SDS011;37739;50.350;7.578;2022-12-13T10:21:55;14.80;;;11.83;;
47882;SDS011;37739;50.350;7.578;2022-12-13T10:24:23;16.20;;;12.10;;
47882;SDS011;37739;50.350;7.578;2022-12-13T10:26:58;16.97;;;11.93;;
47882;SDS011;37739;50.350;7.578;2022-12-13T10:32:27;17.63;;;11.97;;
47882;SDS011;37739;50.350;7.578;2022-12-13T10:34:54;18.53;;;13.07;;
47882;SDS011;37739;50.350;7.578;2022-12-13T10:37:27;17.43;;;13.00;;
47882;SDS011;37739;50.350;7.578;2022-12-13T10:39:54;13.30;;;9.17;;
47882;SDS011;37739;50.350;7.578;2022-12-13T10:42:22;14.20;;;10.57;;
47882;SDS011;37739;50.350;7.578;2022-12-13T10:44:53;12.17;;;9.43;;
47882;SDS011;37739;50.350;7.578;2022-12-13T10:47:34;15.43;;;10.63;;
47882;SDS011;37739;50.350;7.578;2022-12-13T10:50:02;15.87;;;11.77;;
47882;SDS011;37739;50.350;7.578;2022-12-13T10:55:00;18.33;;;12.97;;
47882;SDS011;37739;50.350;7.578;2022-12-13T10:57:28;14.63;;;10.73;;
47882;SDS011;37739;50.350;7.578;2022-12-13T10:59:57;14.20;;;11.30;;
47882;SDS011;37739;50.350;7.578;2022-12-13T11:07:50;16.37;;;12.57;;
47882;SDS011;37739;50.350;7.578;2022-12-13T11:12:44;13.67;;;11.23;;
47882;SDS011;37739;50.350;7.578;2022-12-13T11:15:21;16.90;;;11.20;;
47882;SDS011;37739;50.350;7.578;2022-12-13T11:18:34;16.30;;;12.30;;
47882;SDS011;37739;50.350;7.578;2022-12-13T11:20:59;13.13;;;10.13;;
47882;SDS011;37739;50.350;7.578;2022-12-13T11:23:42;15.80;;;10.90;;
47882;SDS011;37739;50.350;7.578;2022-12-13T11:26:10;15.20;;;12.17;;
47882;SDS011;37739;50.350;7.578;2022-12-13T11:36:30;16.80;;;11.37;;
47882;SDS011;37739;50.350;7.578;2022-12-13T11:42:11;13.40;;;9.50;;
47882;SDS011;37739;50.350;7.578;2022-12-13T11:45:10;12.93;;;9.60;;
47882;SDS011;37739;50.350;7.578;2022-12-13T11:48:24;13.97;;;10.77;;
47882;SDS011;37739;50.350;7.578;2022-12-13T11:51:08;13.53;;;9.53;;
47882;SDS011;37739;50.350;7.578;2022-12-13T11:56:24;15.07;;;10.97;;
47882;SDS011;37739;50.350;7.578;2022-12-13T12:01:21;11.33;;;9.03;;
47882;SDS011;37739;50.350;7.578;2022-12-13T12:03:58;15.70;;;11.30;;
47882;SDS011;37739;50.350;7.578;2022-12-13T12:06:50;14.43;;;10.70;;
47882;SDS011;37739;50.350;7.578;2022-12-13T12:09:17;12.30;;;10.97;;
47882;SDS011;37739;50.350;7.578;2022-12-13T12:12:02;16.20;;;11.77;;
47882;SDS011;37739;50.350;7.578;2022-12-13T12:14:36;16.20;;;11.13;;
47882;SDS011;37739;50.350;7.578;2022-12-13T12:17:12;12.30;;;9.30;;
47882;SDS011;37739;50.350;7.578;2022-12-13T12:19:43;13.20;;;9.97;;
47882;SDS011;37739;50.350;7.578;2022-12-13T12:36:13;15.50;;;11.17;;
47882;SDS011;37739;50.350;7.578;2022-12-13T12:41:31;14.93;;;11.03;;
47882;SDS011;37739;50.350;7.578;2022-12-13T13:00:20;11.43;;;9.10;;
47882;SDS011;37739;50.350;7.578;2022-12-13T13:05:38;9.77;;;7.23;;
47882;SDS011;37739;50.350;7.578;2022-12-13T13:08:15;13.70;;;10.40;;
47882;SDS011;37739;50.350;7.578;2022-12-13T13:10:47;13.07;;;9.87;;
47882;SDS011;37739;50.350;7.578;2022-12-13T13:16:04;10.70;;;8.77;;
47882;SDS011;37739;50.350;7.578;2022-12-13T13:24:33;13.47;;;9.90;;
47882;SDS011;37739;50.350;7.578;2022-12-13T13:26:40;12.80;;;9.20;;
47882;SDS011;37739;50.350;7.578;2022-12-13T13:34:28;10.13;;;7.60;;
47882;SDS011;37739;50.350;7.578;2022-12-13T13:36:58;10.23;;;8.37;;
47882;SDS011;37739;50.350;7.578;2022-12-13T13:52:30;13.17;;;9.77;;
47882;SDS011;37739;50.350;7.578;2022-12-13T13:58:34;11.67;;;9.13;;
47882;SDS011;37739;50.350;7.578;2022-12-13T14:04:20;12.20;;;9.80;;
47882;SDS011;37739;50.350;7.578;2022-12-13T14:15:58;12.37;;;9.17;;
47882;SDS011;37739;50.350;7.578;2022-12-13T14:29:18;10.23;;;8.50;;
47882;SDS011;37739;50.350;7.578;2022-12-13T14:31:48;11.47;;;9.20;;
47882;SDS011;37739;50.350;7.578;2022-12-13T14:34:20;11.30;;;9.03;;
47882;SDS011;37739;50.350;7.578;2022-12-13T14:39:27;10.03;;;8.20;;
47882;SDS011;37739;50.350;7.578;2022-12-13T14:41:55;11.67;;;9.10;;
47882;SDS011;37739;50.350;7.578;2022-12-13T14:44:29;11.97;;;9.27;;
47882;SDS011;37739;50.350;7.578;2022-12-13T14:47:02;11.33;;;9.10;;
47882;SDS011;37739;50.350;7.578;2022-12-13T14:49:30;10.17;;;7.90;;
47882;SDS011;37739;50.350;7.578;2022-12-13T14:52:02;10.23;;;7.77;;
47882;SDS011;37739;50.350;7.578;2022-12-13T14:55:19;11.20;;;8.40;;
47882;SDS011;37739;50.350;7.578;2022-12-13T14:57:28;8.73;;;6.50;;
47882;SDS011;37739;50.350;7.578;2022-12-13T14:59:56;11.87;;;9.33;;
47882;SDS011;37739;50.350;7.578;2022-12-13T15:02:25;10.00;;;7.90;;
47882;SDS011;37739;50.350;7.578;2022-12-13T15:04:58;13.27;;;10.50;;
47882;SDS011;37739;50.350;7.578;2022-12-13T15:07:32;13.83;;;9.90;;
47882;SDS011;37739;50.350;7.578;2022-12-13T15:10:03;12.83;;;9.27;;
47882;SDS011;37739;50.350;7.578;2022-12-13T15:12:53;14.43;;;10.40;;
47882;SDS011;37739;50.350;7.578;2022-12-13T15:15:29;11.40;;;8.63;;
47882;SDS011;37739;50.350;7.578;2022-12-13T15:20:39;12.33;;;9.90;;
47882;SDS011;37739;50.350;7.578;2022-12-13T15:26:21;9.87;;;7.53;;
47882;SDS011;37739;50.350;7.578;2022-12-13T15:28:52;11.10;;;8.50;;
47882;SDS011;37739;50.350;7.578;2022-12-13T15:31:21;16.70;;;11.70;;
47882;SDS011;37739;50.350;7.578;2022-12-13T15:33:47;14.00;;;10.70;;
47882;SDS011;37739;50.350;7.578;2022-12-13T15:36:17;12.70;;;9.37;;
47882;SDS011;37739;50.350;7.578;2022-12-13T15:41:22;14.20;;;10.70;;
47882;SDS011;37739;50.350;7.578;2022-12-13T15:43:52;12.13;;;8.63;;
47882;SDS011;37739;50.350;7.578;2022-12-13T15:46:27;10.80;;;6.80;;
47882;SDS011;37739;50.350;7.578;2022-12-13T15:48:55;11.60;;;9.07;;
47882;SDS011;37739;50.350;7.578;2022-12-13T15:51:28;13.47;;;9.07;;
47882;SDS011;37739;50.350;7.578;2022-12-13T15:56:35;12.57;;;10.03;;
47882;SDS011;37739;50.350;7.578;2022-12-13T15:59:30;14.33;;;10.93;;
47882;SDS011;37739;50.350;7.578;2022-12-13T16:01:57;10.90;;;8.43;;
47882;SDS011;37739;50.350;7.578;2022-12-13T16:04:26;13.33;;;9.10;;
47882;SDS011;37739;50.350;7.578;2022-12-13T16:06:54;13.07;;;9.80;;
47882;SDS011;37739;50.350;7.578;2022-12-13T16:09:20;11.33;;;7.90;;
47882;SDS011;37739;50.350;7.578;2022-12-13T16:11:55;15.60;;;10.70;;
47882;SDS011;37739;50.350;7.578;2022-12-13T16:16:57;11.53;;;10.03;;
47882;SDS011;37739;50.350;7.578;2022-12-13T16:19:26;18.23;;;16.27;;
47882;SDS011;37739;50.350;7.578;2022-12-13T16:21:51;13.40;;;10.53;;
47882;SDS011;37739;50.350;7.578;2022-12-13T16:24:21;42.13;;;37.93;;
47882;SDS011;37739;50.350;7.578;2022-12-13T16:26:49;22.50;;;19.73;;
47882;SDS011;37739;50.350;7.578;2022-12-13T16:29:15;26.50;;;23.70;;
47882;SDS011;37739;50.350;7.578;2022-12-13T16:31:45;28.90;;;25.63;;
47882;SDS011;37739;50.350;7.578;2022-12-13T16:34:11;17.97;;;15.27;;
47882;SDS011;37739;50.350;7.578;2022-12-13T16:36:37;12.77;;;10.23;;
47882;SDS011;37739;50.350;7.578;2022-12-13T16:39:05;20.80;;;16.53;;
47882;SDS011;37739;50.350;7.578;2022-12-13T16:41:42;25.37;;;22.63;;
47882;SDS011;37739;50.350;7.578;2022-12-13T16:44:15;17.33;;;11.83;;
47882;SDS011;37739;50.350;7.578;2022-12-13T16:46:45;14.60;;;11.80;;
47882;SDS011;37739;50.350;7.578;2022-12-13T16:49:18;20.40;;;14.77;;
47882;SDS011;37739;50.350;7.578;2022-12-13T16:51:54;15.83;;;12.27;;
47882;SDS011;37739;50.350;7.578;2022-12-13T16:54:20;9.63;;;7.80;;
47882;SDS011;37739;50.350;7.578;2022-12-13T16:56:47;11.43;;;8.60;;
47882;SDS011;37739;50.350;7.578;2022-12-13T16:59:17;12.10;;;9.63;;
47882;SDS011;37739;50.350;7.578;2022-12-13T17:01:44;11.97;;;9.53;;
47882;SDS011;37739;50.350;7.578;2022-12-13T17:04:15;13.37;;;9.47;;
47882;SDS011;37739;50.350;7.578;2022-12-13T17:06:46;14.40;;;12.17;;
47882;SDS011;37739;50.350;7.578;2022-12-13T17:09:14;12.13;;;9.37;;
47882;SDS011;37739;50.350;7.578;2022-12-13T17:11:40;13.83;;;8.40;;